M I D A S
Marine Information and Data Acquisition System
Tripno 1383 of the Zeeleeuw from 2007-10-17 06:45:15 to 2007-10-17 14:47:27
Back to CruiseResearch ActivitiesStationsMapUnderway DataData graphs

EquipmentUnitsComment
TimeDGPSUTC
LatitudeDGPSDM.mWGS84
LongitudeDGPSDM.mWGS84
HeadingGyrodeg 
SOGDGPSknotsSpeed over ground
COGDGPSdegCourse over ground
DepthEcho soundermeters200 kHz
Missing or incorrect values are displayed as -999
Navigation data collected by the RV Zeeleeuw from 2007-10-17 06:05:17 to 2007-10-17 15:01:04
                                                                                    Next 1000 lines
Time Latitude Longitude Heading SOG COG Depth
2007-10-17 06:05:27 51°13.597 2°56.093 123.7 0.1 346 9.2
2007-10-17 06:05:32 51°13.597 2°56.093 123.7 0.1 184 9.2
2007-10-17 06:05:37 51°13.597 2°56.092 123.7 -999 55 9.2
2007-10-17 06:05:42 51°13.597 2°56.092 123.7 -999 322 9.2
2007-10-17 06:05:48 51°13.597 2°56.092 123.7 -999 130 -999
2007-10-17 06:05:52 51°13.597 2°56.092 123.7 -999 197 -999
2007-10-17 06:05:57 51°13.597 2°56.092 123.7 -999 348 9.3
2007-10-17 06:06:02 51°13.597 2°56.092 123.7 -999 30 9.3
2007-10-17 06:06:08 51°13.597 2°56.092 123.7 -999 264 9.2
2007-10-17 06:06:12 51°13.598 2°56.092 123.7 -999 12 9.3
2007-10-17 06:06:17 51°13.598 2°56.092 123.6 -999 339 9.3
2007-10-17 06:06:22 51°13.597 2°56.093 123.6 -999 118 9.3
2007-10-17 06:06:27 51°13.597 2°56.092 123.6 -999 285 9.3
2007-10-17 06:06:32 51°13.596 2°56.092 123.6 0.1 345 9.3
2007-10-17 06:06:37 51°13.596 2°56.093 123.6 -999 356 9.4
2007-10-17 06:06:42 51°13.596 2°56.093 123.6 -999 221 9.4
2007-10-17 06:06:47 51°13.596 2°56.093 123.6 -999 343 9.3
2007-10-17 06:06:52 51°13.596 2°56.093 123.6 -999 5 9.2
2007-10-17 06:06:57 51°13.596 2°56.093 123.6 -999 4 9.2
2007-10-17 06:07:02 51°13.596 2°56.093 123.6 -999 198 9.2
2007-10-17 06:07:07 51°13.596 2°56.093 123.6 -999 350 9.2
2007-10-17 06:07:12 51°13.596 2°56.093 123.6 0.1 352 9.2
2007-10-17 06:07:17 51°13.596 2°56.093 123.6 -999 303 9.2
2007-10-17 06:07:21 51°13.596 2°56.093 123.6 -999 193 9.3
2007-10-17 06:07:26 51°13.596 2°56.093 123.6 -999 356 9.2
2007-10-17 06:07:31 51°13.596 2°56.093 123.5 -999 40 9.2
2007-10-17 06:07:36 51°13.596 2°56.093 123.5 -999 333 9.3
2007-10-17 06:07:41 51°13.596 2°56.093 123.5 -999 23 9.2
2007-10-17 06:07:45 51°13.596 2°56.093 123.5 -999 1 9.2
2007-10-17 06:07:50 51°13.596 2°56.093 123.5 -999 191 -999
2007-10-17 06:07:55 51°13.596 2°56.094 123.5 -999 75 9.2
2007-10-17 06:08:00 51°13.596 2°56.094 123.5 -999 11 9.2
2007-10-17 06:08:05 51°13.596 2°56.094 123.5 -999 195 9.3
2007-10-17 06:08:10 51°13.596 2°56.093 123.5 -999 41 9.2
2007-10-17 06:08:14 51°13.597 2°56.093 123.5 -999 334 9.2
2007-10-17 06:08:19 51°13.597 2°56.093 123.4 -999 336 9.2
2007-10-17 06:08:24 51°13.597 2°56.094 123.4 -999 90 9.2
2007-10-17 06:08:29 51°13.597 2°56.094 123.5 -999 122 9.2
2007-10-17 06:08:34 51°13.597 2°56.094 123.5 -999 332 9.2
2007-10-17 06:08:39 51°13.597 2°56.094 123.6 -999 3 9.2
2007-10-17 06:08:44 51°13.597 2°56.094 123.6 -999 203 9.2
2007-10-17 06:08:49 51°13.597 2°56.094 123.6 -999 47 9.3
2007-10-17 06:08:53 51°13.597 2°56.094 123.5 -999 311 9.3
2007-10-17 06:08:59 51°13.597 2°56.093 123.4 -999 332 9.2
2007-10-17 06:09:04 51°13.597 2°56.094 123.4 -999 54 9.2
2007-10-17 06:09:09 51°13.597 2°56.094 123.4 -999 333 9.2
2007-10-17 06:09:14 51°13.597 2°56.094 123.4 -999 2 9.2
2007-10-17 06:09:19 51°13.597 2°56.094 123.4 -999 323 9.2
2007-10-17 06:09:24 51°13.597 2°56.094 123.4 -999 292 -999
2007-10-17 06:09:29 51°13.597 2°56.094 123.4 -999 313 9.2
2007-10-17 06:09:34 51°13.597 2°56.094 123.4 -999 345 9.2
2007-10-17 06:09:39 51°13.597 2°56.093 123.4 -999 261 9.2
2007-10-17 06:09:44 51°13.597 2°56.093 123.4 -999 38 9.2
2007-10-17 06:09:49 51°13.597 2°56.093 123.4 -999 341 9.1
2007-10-17 06:09:54 51°13.597 2°56.094 123.4 -999 228 9.2
2007-10-17 06:09:59 51°13.597 2°56.094 123.4 -999 13 9.3
2007-10-17 06:10:04 51°13.597 2°56.094 123.4 -999 324 9.3
2007-10-17 06:10:09 51°13.597 2°56.094 123.3 0.1 337 9.2
2007-10-17 06:10:13 51°13.597 2°56.094 123.3 -999 328 9.2
2007-10-17 06:10:19 51°13.597 2°56.094 123.3 -999 294 9.2
2007-10-17 06:10:24 51°13.597 2°56.094 123.3 0.1 341 9.1
2007-10-17 06:10:29 51°13.597 2°56.094 123.3 -999 12 9.2
2007-10-17 06:10:33 51°13.597 2°56.094 123.4 -999 177 9.3
2007-10-17 06:10:39 51°13.597 2°56.094 123.4 -999 359 9.2
2007-10-17 06:10:44 51°13.597 2°56.094 123.3 -999 17 9.3
2007-10-17 06:10:49 51°13.597 2°56.094 123.3 -999 327 9.3
2007-10-17 06:10:53 51°13.597 2°56.094 123.3 -999 168 9.2
2007-10-17 06:10:59 51°13.597 2°56.094 123.3 -999 357 9.3
2007-10-17 06:11:04 51°13.597 2°56.094 123.3 -999 7 9.2
2007-10-17 06:11:09 51°13.597 2°56.094 123.3 -999 227 9.3
2007-10-17 06:11:13 51°13.597 2°56.094 123.3 -999 103 9.2
2007-10-17 06:11:19 51°13.597 2°56.094 123.3 -999 35 9.2
2007-10-17 06:11:24 51°13.597 2°56.094 123.3 -999 336 9.3
2007-10-17 06:11:29 51°13.597 2°56.094 123.3 -999 125 9.3
2007-10-17 06:11:33 51°13.597 2°56.093 123.3 -999 225 9.3
2007-10-17 06:11:39 51°13.598 2°56.094 123.3 -999 12 9.3
2007-10-17 06:11:44 51°13.598 2°56.093 123.3 -999 249 9.2
2007-10-17 06:11:49 51°13.598 2°56.094 123.3 -999 45 9.2
2007-10-17 06:11:53 51°13.598 2°56.093 123.3 -999 313 9.5
2007-10-17 06:11:59 51°13.598 2°56.094 123.3 -999 359 9.3
2007-10-17 06:12:04 51°13.598 2°56.093 123.3 -999 110 9.2
2007-10-17 06:12:09 51°13.598 2°56.093 123.3 -999 181 9.3
2007-10-17 06:12:14 51°13.598 2°56.094 123.3 -999 55 9.2
2007-10-17 06:12:19 51°13.598 2°56.094 123.3 -999 140 9.2
2007-10-17 06:12:24 51°13.598 2°56.094 123.3 -999 15 9.2
2007-10-17 06:12:29 51°13.598 2°56.094 123.3 -999 20 9.4
2007-10-17 06:12:33 51°13.598 2°56.094 123.3 -999 308 9.2
2007-10-17 06:12:39 51°13.598 2°56.094 123.3 -999 338 9.1
2007-10-17 06:12:44 51°13.598 2°56.094 123.3 -999 168 9.1
2007-10-17 06:12:49 51°13.598 2°56.094 123.3 -999 227 9.3
2007-10-17 06:12:53 51°13.598 2°56.094 123.3 -999 16 9.4
2007-10-17 06:12:59 51°13.598 2°56.094 123.3 -999 204 9.4
2007-10-17 06:13:04 51°13.598 2°56.094 123.3 -999 307 9.2
2007-10-17 06:13:09 51°13.598 2°56.094 123.3 -999 45 9.2
2007-10-17 06:13:13 51°13.598 2°56.094 123.3 -999 183 9.2
2007-10-17 06:13:19 51°13.598 2°56.094 123.3 -999 331 9.2
2007-10-17 06:13:24 51°13.598 2°56.094 123.3 0.1 326 9.2
2007-10-17 06:13:29 51°13.598 2°56.094 123.3 -999 1 9.2
2007-10-17 06:13:34 51°13.598 2°56.094 123.3 -999 129 9.2
2007-10-17 06:13:39 51°13.598 2°56.094 123.3 -999 316 9.2
2007-10-17 06:13:44 51°13.598 2°56.094 123.3 -999 335 9.2
2007-10-17 06:13:49 51°13.598 2°56.094 123.3 -999 351 9.1
2007-10-17 06:13:54 51°13.598 2°56.094 123.3 -999 320 9.1
2007-10-17 06:13:59 51°13.598 2°56.094 123.2 -999 296 9.2
2007-10-17 06:14:04 51°13.598 2°56.094 123.1 -999 358 9.1
2007-10-17 06:14:09 51°13.598 2°56.094 123.1 -999 311 9.1
2007-10-17 06:14:13 51°13.598 2°56.094 123.1 -999 24 9.1
2007-10-17 06:14:19 51°13.598 2°56.094 123.1 -999 334 9.2
2007-10-17 06:14:24 51°13.598 2°56.094 123.1 -999 329 9.2
2007-10-17 06:14:29 51°13.598 2°56.094 123.1 -999 8 9.2
2007-10-17 06:14:33 51°13.598 2°56.094 123.1 -999 322 9.2
2007-10-17 06:14:39 51°13.598 2°56.094 123.1 -999 286 9.5
2007-10-17 06:14:44 51°13.598 2°56.094 123.1 -999 22 9.2
2007-10-17 06:14:49 51°13.598 2°56.095 123.1 -999 64 9.2
2007-10-17 06:14:53 51°13.598 2°56.095 123.1 0.1 167 9.1
2007-10-17 06:14:59 51°13.598 2°56.094 123.1 -999 96 9.2
2007-10-17 06:15:04 51°13.598 2°56.094 123 -999 7 9.2
2007-10-17 06:15:09 51°13.598 2°56.094 123 -999 247 9.1
2007-10-17 06:15:13 51°13.598 2°56.094 123 -999 358 -999
2007-10-17 06:15:19 51°13.598 2°56.094 123 -999 314 -999
2007-10-17 06:15:24 51°13.598 2°56.094 123 -999 316 9.1
2007-10-17 06:15:29 51°13.598 2°56.094 123 -999 307 9.1
2007-10-17 06:15:34 51°13.598 2°56.094 123 -999 338 9.1
2007-10-17 06:15:39 51°13.598 2°56.094 123 -999 356 9.1
2007-10-17 06:15:44 51°13.598 2°56.094 123 -999 322 9.2
2007-10-17 06:15:49 51°13.598 2°56.094 123.1 -999 291 9.1
2007-10-17 06:15:53 51°13.598 2°56.094 123.1 -999 354 9.1
2007-10-17 06:15:59 51°13.598 2°56.094 123.1 -999 337 -999
2007-10-17 06:16:04 51°13.598 2°56.094 123.1 -999 312 9.1
2007-10-17 06:16:09 51°13.598 2°56.094 123.1 -999 355 9.2
2007-10-17 06:16:14 51°13.598 2°56.094 123.1 -999 299 9.1
2007-10-17 06:16:19 51°13.598 2°56.094 123.1 -999 37 9.3
2007-10-17 06:16:24 51°13.598 2°56.094 123 -999 325 9.2
2007-10-17 06:16:29 51°13.598 2°56.094 123 -999 301 9.1
2007-10-17 06:16:33 51°13.598 2°56.094 123 -999 244 9.1
2007-10-17 06:16:39 51°13.598 2°56.094 123 -999 359 9.1
2007-10-17 06:16:44 51°13.598 2°56.094 123 -999 314 9.2
2007-10-17 06:16:49 51°13.598 2°56.094 123 -999 276 9.1
2007-10-17 06:16:53 51°13.598 2°56.094 123 -999 6 9.1
2007-10-17 06:16:59 51°13.599 2°56.094 123.1 -999 281 9.2
2007-10-17 06:17:04 51°13.599 2°56.094 123 -999 323 9.2
2007-10-17 06:17:09 51°13.599 2°56.094 123 -999 325 9.1
2007-10-17 06:17:13 51°13.599 2°56.095 123 -999 2 9.1
2007-10-17 06:17:19 51°13.599 2°56.095 123 -999 150 9.3
2007-10-17 06:17:24 51°13.599 2°56.095 123 -999 15 9.2
2007-10-17 06:17:29 51°13.599 2°56.095 123.1 -999 23 9.1
2007-10-17 06:17:34 51°13.599 2°56.095 123.1 -999 190 9.3
2007-10-17 06:17:39 51°13.599 2°56.095 123.1 -999 304 9.3
2007-10-17 06:17:44 51°13.599 2°56.095 123.1 -999 303 9.1
2007-10-17 06:17:49 51°13.599 2°56.095 123.1 -999 339 9.1
2007-10-17 06:17:53 51°13.599 2°56.095 123.1 -999 346 9.1
2007-10-17 06:17:59 51°13.6 2°56.095 123.1 -999 337 9.1
2007-10-17 06:18:04 51°13.599 2°56.095 123.1 -999 324 9.1
2007-10-17 06:18:09 51°13.599 2°56.095 123.1 -999 323 9.1
2007-10-17 06:18:13 51°13.599 2°56.095 123.1 -999 241 9.1
2007-10-17 06:18:19 51°13.599 2°56.095 123.1 -999 327 9.1
2007-10-17 06:18:24 51°13.599 2°56.095 123.1 -999 -999 9.1
2007-10-17 06:18:29 51°13.599 2°56.095 123.1 -999 38 9.1
2007-10-17 06:18:34 51°13.599 2°56.095 123.1 -999 261 -999
2007-10-17 06:18:39 51°13.599 2°56.095 123.1 -999 224 9.1
2007-10-17 06:18:44 51°13.599 2°56.095 123.2 -999 10 9.1
2007-10-17 06:18:49 51°13.599 2°56.095 123.2 -999 287 9
2007-10-17 06:18:53 51°13.599 2°56.095 123.2 -999 14 9
2007-10-17 06:18:59 51°13.599 2°56.095 123.2 -999 54 9.1
2007-10-17 06:19:04 51°13.599 2°56.095 123.2 -999 2 9.1
2007-10-17 06:19:09 51°13.599 2°56.095 123.2 -999 237 9.2
2007-10-17 06:19:13 51°13.599 2°56.095 123.2 -999 333 9.1
2007-10-17 06:19:19 51°13.599 2°56.095 123.2 -999 302 9
2007-10-17 06:19:24 51°13.599 2°56.095 123.2 -999 180 9.1
2007-10-17 06:19:29 51°13.599 2°56.095 123.2 -999 357 9
2007-10-17 06:19:33 51°13.599 2°56.095 123.2 0.1 348 9
2007-10-17 06:19:39 51°13.599 2°56.095 123.2 -999 306 9
2007-10-17 06:19:44 51°13.599 2°56.095 123.2 -999 134 -999
2007-10-17 06:19:49 51°13.599 2°56.095 123.2 -999 357 9
2007-10-17 06:19:53 51°13.599 2°56.095 123.2 -999 186 9
2007-10-17 06:19:59 51°13.599 2°56.095 123.2 -999 299 9
2007-10-17 06:20:04 51°13.598 2°56.096 123.3 -999 32 9
2007-10-17 06:20:09 51°13.597 2°56.096 123.3 -999 44 9
2007-10-17 06:20:14 51°13.596 2°56.096 123.3 -999 270 9.1
2007-10-17 06:20:19 51°13.596 2°56.096 123.3 -999 38 9.1
2007-10-17 06:20:24 51°13.597 2°56.096 123.3 -999 333 9.2
2007-10-17 06:20:29 51°13.597 2°56.096 123.3 -999 350 9
2007-10-17 06:20:33 51°13.597 2°56.096 123.3 -999 334 9
2007-10-17 06:20:39 51°13.598 2°56.096 123.3 -999 2 9
2007-10-17 06:20:44 51°13.599 2°56.096 123.3 -999 325 9.1
2007-10-17 06:20:49 51°13.599 2°56.096 123.4 -999 11 9.1
2007-10-17 06:20:53 51°13.598 2°56.096 123.4 -999 200 9.1
2007-10-17 06:20:59 51°13.598 2°56.096 123.4 -999 8 9
2007-10-17 06:21:04 51°13.597 2°56.096 123.4 -999 318 9.1
2007-10-17 06:21:09 51°13.597 2°56.096 123.4 -999 309 9
2007-10-17 06:21:13 51°13.597 2°56.096 123.4 -999 11 9
2007-10-17 06:21:19 51°13.596 2°56.096 123.4 -999 294 9.1
2007-10-17 06:21:24 51°13.596 2°56.096 123.4 -999 21 9.1
2007-10-17 06:21:29 51°13.597 2°56.096 123.4 -999 288 9
2007-10-17 06:21:33 51°13.597 2°56.096 123.4 -999 317 9.1
2007-10-17 06:21:39 51°13.597 2°56.097 123.4 -999 61 9.1
2007-10-17 06:21:44 51°13.597 2°56.097 123.4 -999 223 9
2007-10-17 06:21:49 51°13.597 2°56.097 123.4 -999 349 9.2
2007-10-17 06:21:53 51°13.597 2°56.097 123.4 -999 317 9
2007-10-17 06:21:59 51°13.597 2°56.097 123.4 -999 318 9
2007-10-17 06:22:04 51°13.597 2°56.097 123.4 -999 340 9
2007-10-17 06:22:09 51°13.596 2°56.097 123.4 -999 201 9
2007-10-17 06:22:13 51°13.596 2°56.097 123.4 -999 5 9
2007-10-17 06:22:19 51°13.596 2°56.097 123.4 -999 309 9
2007-10-17 06:22:24 51°13.595 2°56.097 123.4 -999 62 9
2007-10-17 06:22:29 51°13.595 2°56.097 123.4 -999 275 9
2007-10-17 06:22:33 51°13.595 2°56.097 123.4 -999 340 9
2007-10-17 06:22:39 51°13.595 2°56.097 123.4 -999 199 9
2007-10-17 06:22:44 51°13.596 2°56.097 123.4 -999 256 9
2007-10-17 06:22:49 51°13.596 2°56.097 123.5 -999 114 9
2007-10-17 06:22:53 51°13.596 2°56.097 123.5 -999 297 9
2007-10-17 06:22:59 51°13.596 2°56.097 123.5 -999 340 9
2007-10-17 06:23:04 51°13.596 2°56.097 123.5 -999 324 9
2007-10-17 06:23:09 51°13.596 2°56.097 123.5 -999 240 9
2007-10-17 06:23:14 51°13.596 2°56.097 123.5 -999 11 9
2007-10-17 06:23:19 51°13.596 2°56.097 123.5 -999 300 9
2007-10-17 06:23:24 51°13.596 2°56.097 123.5 -999 345 9
2007-10-17 06:23:29 51°13.596 2°56.097 123.5 -999 352 9
2007-10-17 06:23:34 51°13.596 2°56.097 123.5 -999 60 9.2
2007-10-17 06:23:39 51°13.596 2°56.097 123.5 -999 117 9
2007-10-17 06:23:44 51°13.597 2°56.097 123.5 -999 307 9
2007-10-17 06:23:49 51°13.597 2°56.097 123.5 -999 66 9
2007-10-17 06:23:53 51°13.597 2°56.097 123.6 -999 148 9
2007-10-17 06:23:59 51°13.597 2°56.097 123.5 0.1 5 9
2007-10-17 06:24:04 51°13.597 2°56.097 123.5 -999 329 9
2007-10-17 06:24:09 51°13.597 2°56.097 123.5 -999 101 9.1
2007-10-17 06:24:13 51°13.597 2°56.097 123.6 -999 128 8.9
2007-10-17 06:24:19 51°13.597 2°56.097 123.7 -999 168 9
2007-10-17 06:24:24 51°13.597 2°56.097 123.7 -999 82 9.1
2007-10-17 06:24:29 51°13.597 2°56.097 123.7 -999 113 9
2007-10-17 06:24:33 51°13.597 2°56.097 123.7 -999 10 9
2007-10-17 06:24:39 51°13.597 2°56.097 123.7 -999 245 9
2007-10-17 06:24:44 51°13.597 2°56.097 123.7 -999 20 8.9
2007-10-17 06:24:49 51°13.597 2°56.097 123.8 -999 101 8.9
2007-10-17 06:24:53 51°13.597 2°56.097 124 -999 302 9
2007-10-17 06:24:59 51°13.597 2°56.097 124 -999 321 8.9
2007-10-17 06:25:04 51°13.596 2°56.097 124.1 -999 157 9
2007-10-17 06:25:09 51°13.596 2°56.097 124.1 -999 -999 9
2007-10-17 06:25:14 51°13.597 2°56.097 124 -999 298 -999
2007-10-17 06:25:19 51°13.597 2°56.097 123.9 -999 316 9
2007-10-17 06:25:24 51°13.597 2°56.097 123.9 -999 355 8.9
2007-10-17 06:25:29 51°13.597 2°56.097 123.9 0.1 -999 9
2007-10-17 06:25:34 51°13.597 2°56.097 123.9 -999 274 9
2007-10-17 06:25:40 51°13.597 2°56.097 124 -999 250 9.2
2007-10-17 06:25:44 51°13.597 2°56.097 124 -999 29 9
2007-10-17 06:25:49 51°13.597 2°56.097 124 -999 304 9
2007-10-17 06:25:54 51°13.595 2°56.097 123.9 -999 345 9.1
2007-10-17 06:25:59 51°13.592 2°56.097 123.9 -999 344 9
2007-10-17 06:26:04 51°13.591 2°56.097 123.9 -999 359 9
2007-10-17 06:26:09 51°13.591 2°56.097 123.9 -999 9 8.9
2007-10-17 06:26:13 51°13.592 2°56.097 123.9 -999 263 9
2007-10-17 06:26:19 51°13.593 2°56.097 123.9 -999 328 9
2007-10-17 06:26:24 51°13.593 2°56.097 123.9 -999 324 9
2007-10-17 06:26:29 51°13.594 2°56.097 123.9 -999 331 9
2007-10-17 06:26:33 51°13.595 2°56.097 123.9 -999 17 9
2007-10-17 06:26:39 51°13.595 2°56.097 123.9 -999 108 9
2007-10-17 06:26:44 51°13.596 2°56.097 123.9 -999 335 9
2007-10-17 06:26:49 51°13.596 2°56.097 123.9 -999 330 9
2007-10-17 06:26:54 51°13.595 2°56.097 123.9 0.1 -999 9
2007-10-17 06:26:59 51°13.595 2°56.097 123.8 -999 200 9
2007-10-17 06:27:04 51°13.595 2°56.097 123.7 -999 39 9.2
2007-10-17 06:27:09 51°13.596 2°56.097 123.7 -999 348 9
2007-10-17 06:27:13 51°13.597 2°56.097 123.7 -999 50 9
2007-10-17 06:27:19 51°13.598 2°56.097 123.7 -999 60 9
2007-10-17 06:27:24 51°13.598 2°56.097 123.7 -999 279 9
2007-10-17 06:27:29 51°13.598 2°56.097 123.7 -999 -999 9
2007-10-17 06:27:33 51°13.598 2°56.097 123.7 -999 177 9
2007-10-17 06:27:39 51°13.598 2°56.097 123.7 -999 20 9
2007-10-17 06:27:44 51°13.597 2°56.097 123.7 -999 171 8.9
2007-10-17 06:27:49 51°13.597 2°56.097 123.7 -999 60 9.3
2007-10-17 06:27:54 51°13.597 2°56.097 123.7 -999 31 8.9
2007-10-17 06:27:59 51°13.598 2°56.097 123.7 -999 259 8.9
2007-10-17 06:28:04 51°13.598 2°56.097 123.7 -999 198 8.9
2007-10-17 06:28:09 51°13.598 2°56.097 123.7 -999 25 9.2
2007-10-17 06:28:13 51°13.598 2°56.097 123.7 -999 26 8.9
2007-10-17 06:28:19 51°13.598 2°56.097 123.7 -999 180 9.1
2007-10-17 06:28:24 51°13.598 2°56.097 123.7 -999 196 9
2007-10-17 06:28:29 51°13.598 2°56.097 123.7 -999 354 9
2007-10-17 06:28:33 51°13.598 2°56.097 123.7 -999 222 9.2
2007-10-17 06:28:39 51°13.598 2°56.097 123.7 -999 196 8.9
2007-10-17 06:28:44 51°13.598 2°56.097 123.7 -999 23 8.9
2007-10-17 06:28:49 51°13.598 2°56.097 123.7 -999 322 9
2007-10-17 06:28:54 51°13.598 2°56.097 123.7 -999 263 8.9
2007-10-17 06:28:59 51°13.598 2°56.097 123.7 -999 87 9
2007-10-17 06:29:04 51°13.598 2°56.097 123.7 -999 19 8.9
2007-10-17 06:29:09 51°13.598 2°56.097 123.8 -999 262 9
2007-10-17 06:29:13 51°13.598 2°56.097 123.8 -999 29 9.1
2007-10-17 06:29:19 51°13.598 2°56.097 123.8 0.1 38 9
2007-10-17 06:29:24 51°13.599 2°56.097 123.8 -999 319 8.9
2007-10-17 06:29:29 51°13.599 2°56.097 123.8 -999 352 9.2
2007-10-17 06:29:33 51°13.599 2°56.096 123.8 -999 326 8.9
2007-10-17 06:29:39 51°13.598 2°56.096 123.8 -999 351 8.9
2007-10-17 06:29:44 51°13.598 2°56.096 123.8 0.1 20 9
2007-10-17 06:29:49 51°13.598 2°56.096 123.8 -999 16 8.9
2007-10-17 06:29:54 51°13.598 2°56.097 123.8 -999 1 9
2007-10-17 06:29:59 51°13.598 2°56.097 123.8 -999 21 8.9
2007-10-17 06:30:04 51°13.598 2°56.097 123.8 -999 25 8.9
2007-10-17 06:30:09 51°13.598 2°56.096 123.8 -999 247 8.9
2007-10-17 06:30:13 51°13.598 2°56.096 123.8 -999 1 8.9
2007-10-17 06:30:19 51°13.598 2°56.096 123.8 -999 345 8.9
2007-10-17 06:30:24 51°13.598 2°56.096 123.8 -999 250 8.9
2007-10-17 06:30:29 51°13.598 2°56.096 123.7 -999 243 8.9
2007-10-17 06:30:33 51°13.598 2°56.096 123.7 0.1 22 9
2007-10-17 06:30:39 51°13.598 2°56.096 123.7 -999 318 8.9
2007-10-17 06:30:44 51°13.597 2°56.096 123.7 -999 336 8.9
2007-10-17 06:30:49 51°13.597 2°56.096 123.7 -999 1 8.9
2007-10-17 06:30:53 51°13.597 2°56.096 123.7 -999 18 8.9
2007-10-17 06:30:59 51°13.597 2°56.096 123.7 -999 46 8.9
2007-10-17 06:31:04 51°13.597 2°56.096 123.7 -999 178 8.9
2007-10-17 06:31:09 51°13.597 2°56.096 123.7 -999 163 8.9
2007-10-17 06:31:13 51°13.597 2°56.096 123.7 -999 107 9
2007-10-17 06:31:19 51°13.597 2°56.096 123.8 -999 278 8.9
2007-10-17 06:31:24 51°13.597 2°56.096 123.8 -999 349 8.9
2007-10-17 06:31:29 51°13.597 2°56.097 123.8 -999 260 9
2007-10-17 06:31:34 51°13.598 2°56.097 123.8 -999 318 -999
2007-10-17 06:31:39 51°13.598 2°56.097 123.8 -999 192 8.9
2007-10-17 06:31:44 51°13.598 2°56.097 123.8 -999 303 8.9
2007-10-17 06:31:49 51°13.598 2°56.097 123.8 -999 31 8.9
2007-10-17 06:31:53 51°13.598 2°56.097 123.7 -999 207 8.9
2007-10-17 06:31:59 51°13.598 2°56.097 123.7 -999 267 8.9
2007-10-17 06:32:04 51°13.598 2°56.097 123.7 -999 18 8.9
2007-10-17 06:32:09 51°13.598 2°56.097 123.7 -999 175 8.9
2007-10-17 06:32:14 51°13.598 2°56.097 123.7 -999 230 -999
2007-10-17 06:32:20 51°13.598 2°56.097 123.7 -999 308 8.9
2007-10-17 06:32:24 51°13.598 2°56.097 123.7 0.1 13 8.9
2007-10-17 06:32:29 51°13.598 2°56.097 123.7 -999 254 8.9
2007-10-17 06:32:34 51°13.598 2°56.097 123.7 -999 45 -999
2007-10-17 06:32:40 51°13.598 2°56.097 123.7 -999 327 8.9
2007-10-17 06:32:45 51°13.598 2°56.097 123.7 -999 265 -999
2007-10-17 06:32:49 51°13.598 2°56.097 123.7 -999 183 8.9
2007-10-17 06:32:54 51°13.598 2°56.097 123.7 -999 342 9.1
2007-10-17 06:32:59 51°13.598 2°56.097 123.7 0.1 25 8.8
2007-10-17 06:33:04 51°13.598 2°56.097 123.7 -999 258 8.9
2007-10-17 06:33:09 51°13.598 2°56.097 123.7 -999 6 8.9
2007-10-17 06:33:13 51°13.598 2°56.097 123.7 -999 201 9
2007-10-17 06:33:19 51°13.598 2°56.097 123.7 -999 17 8.9
2007-10-17 06:33:24 51°13.598 2°56.097 123.8 -999 19 8.9
2007-10-17 06:33:29 51°13.598 2°56.097 123.9 -999 315 8.9
2007-10-17 06:33:33 51°13.598 2°56.097 123.9 -999 46 9
2007-10-17 06:33:39 51°13.598 2°56.097 124 -999 2 8.9
2007-10-17 06:33:44 51°13.598 2°56.097 124 -999 235 8.9
2007-10-17 06:33:49 51°13.598 2°56.097 124 -999 104 8.9
2007-10-17 06:33:53 51°13.598 2°56.097 124 -999 192 8.9
2007-10-17 06:34:00 51°13.598 2°56.097 124 -999 214 -999
2007-10-17 06:34:04 51°13.598 2°56.097 124 -999 317 8.9
2007-10-17 06:34:09 51°13.597 2°56.097 124 -999 278 8.9
2007-10-17 06:34:14 51°13.598 2°56.097 124 -999 202 8.9
2007-10-17 06:34:19 51°13.603 2°56.097 124 -999 194 8.9
2007-10-17 06:34:24 51°13.607 2°56.097 124.1 -999 258 8.9
2007-10-17 06:34:29 51°13.609 2°56.097 124.1 0.1 201 8.9
2007-10-17 06:34:34 51°13.61 2°56.097 124.1 -999 351 8.9
2007-10-17 06:34:39 51°13.609 2°56.097 124 0.1 235 8.9
2007-10-17 06:34:44 51°13.608 2°56.097 123.9 -999 15 8.9
2007-10-17 06:34:49 51°13.607 2°56.097 123.9 0.1 220 9.1
2007-10-17 06:34:54 51°13.606 2°56.097 123.9 -999 44 8.9
2007-10-17 06:34:59 51°13.605 2°56.097 123.9 -999 36 8.9
2007-10-17 06:35:04 51°13.604 2°56.097 123.9 0.1 206 8.9
2007-10-17 06:35:09 51°13.604 2°56.097 123.9 -999 219 8.9
2007-10-17 06:35:13 51°13.604 2°56.097 123.9 -999 239 9
2007-10-17 06:35:19 51°13.603 2°56.097 123.9 -999 275 8.9
2007-10-17 06:35:24 51°13.603 2°56.097 123.9 -999 29 8.9
2007-10-17 06:35:29 51°13.602 2°56.097 123.9 -999 293 8.9
2007-10-17 06:35:33 51°13.602 2°56.097 123.9 -999 351 8.9
2007-10-17 06:35:39 51°13.602 2°56.097 123.9 -999 336 8.9
2007-10-17 06:35:44 51°13.601 2°56.097 123.9 -999 210 9.1
2007-10-17 06:35:49 51°13.598 2°56.097 123.9 -999 257 8.9
2007-10-17 06:35:53 51°13.599 2°56.097 123.9 -999 251 9
2007-10-17 06:35:59 51°13.6 2°56.097 123.9 -999 65 8.9
2007-10-17 06:36:04 51°13.6 2°56.097 123.9 -999 355 9.1
2007-10-17 06:36:09 51°13.599 2°56.097 123.9 -999 256 8.8
2007-10-17 06:36:14 51°13.599 2°56.097 123.9 -999 263 8.9
2007-10-17 06:36:19 51°13.598 2°56.097 123.9 -999 9 9.1
2007-10-17 06:36:24 51°13.598 2°56.097 123.9 0.1 27 9
2007-10-17 06:36:29 51°13.597 2°56.097 124 -999 329 9
2007-10-17 06:36:34 51°13.597 2°56.097 124 -999 6 8.8
2007-10-17 06:36:39 51°13.597 2°56.097 124 0.1 213 8.9
2007-10-17 06:36:44 51°13.597 2°56.097 124 -999 336 8.9
2007-10-17 06:36:49 51°13.597 2°56.097 124 -999 222 8.9
2007-10-17 06:36:54 51°13.596 2°56.097 124 -999 316 9
2007-10-17 06:36:59 51°13.596 2°56.097 124 -999 347 8.8
2007-10-17 06:37:04 51°13.596 2°56.097 124 -999 288 9.1
2007-10-17 06:37:09 51°13.597 2°56.097 124 -999 28 8.8
2007-10-17 06:37:14 51°13.597 2°56.097 124 -999 278 8.8
2007-10-17 06:37:19 51°13.597 2°56.097 124 -999 16 8.9
2007-10-17 06:37:24 51°13.597 2°56.097 124 -999 18 8.9
2007-10-17 06:37:29 51°13.597 2°56.097 124 -999 25 8.8
2007-10-17 06:37:33 51°13.597 2°56.097 124 -999 44 8.8
2007-10-17 06:37:39 51°13.597 2°56.097 124 -999 46 8.8
2007-10-17 06:37:44 51°13.597 2°56.097 124 -999 39 8.8
2007-10-17 06:37:49 51°13.597 2°56.097 124.1 -999 210 8.8
2007-10-17 06:37:53 51°13.597 2°56.097 124.1 -999 34 9
2007-10-17 06:37:59 51°13.597 2°56.097 124.1 -999 28 8.8
2007-10-17 06:38:04 51°13.596 2°56.097 124.1 -999 28 8.7
2007-10-17 06:38:09 51°13.596 2°56.097 124.1 -999 205 8.7
2007-10-17 06:38:14 51°13.596 2°56.097 124.2 -999 40 -999
2007-10-17 06:38:19 51°13.596 2°56.097 124.2 -999 195 8.8
2007-10-17 06:38:24 51°13.596 2°56.097 124.2 -999 221 8.9
2007-10-17 06:38:29 51°13.597 2°56.097 124.2 -999 30 8.9
2007-10-17 06:38:34 51°13.597 2°56.097 124.2 -999 241 8.8
2007-10-17 06:38:39 51°13.597 2°56.097 124.2 -999 357 8.8
2007-10-17 06:38:44 51°13.597 2°56.097 124.2 -999 228 8.8
2007-10-17 06:38:49 51°13.597 2°56.097 124.2 -999 14 8.8
2007-10-17 06:38:54 51°13.597 2°56.097 124.2 0.1 27 8.8
2007-10-17 06:39:00 51°13.597 2°56.097 124.2 -999 4 -999
2007-10-17 06:39:04 51°13.597 2°56.097 124.1 -999 339 8.7
2007-10-17 06:39:09 51°13.597 2°56.097 124.1 -999 252 8.9
2007-10-17 06:39:14 51°13.597 2°56.097 124.1 -999 10 8.8
2007-10-17 06:39:19 51°13.597 2°56.097 124.1 -999 21 8.8
2007-10-17 06:39:24 51°13.597 2°56.097 124.1 -999 24 8.8
2007-10-17 06:39:29 51°13.597 2°56.097 124.1 -999 227 8.8
2007-10-17 06:39:33 51°13.597 2°56.097 124.1 -999 272 8.8
2007-10-17 06:39:39 51°13.597 2°56.097 124.1 0.1 27 8.8
2007-10-17 06:39:44 51°13.597 2°56.097 124.1 -999 301 8.8
2007-10-17 06:39:49 51°13.597 2°56.097 124.1 -999 232 8.8
2007-10-17 06:39:53 51°13.597 2°56.097 124.1 -999 234 8.8
2007-10-17 06:39:59 51°13.597 2°56.097 124.2 -999 336 8.8
2007-10-17 06:40:04 51°13.597 2°56.097 124.2 -999 245 8.8
2007-10-17 06:40:09 51°13.596 2°56.097 124.2 -999 271 8.8
2007-10-17 06:40:13 51°13.596 2°56.097 124.1 0.1 343 8.8
2007-10-17 06:40:19 51°13.596 2°56.097 124.1 -999 180 8.7
2007-10-17 06:40:24 51°13.596 2°56.097 124.1 -999 349 8.8
2007-10-17 06:40:29 51°13.596 2°56.097 124.1 -999 176 8.8
2007-10-17 06:40:33 51°13.596 2°56.097 124.1 -999 206 8.7
2007-10-17 06:40:39 51°13.597 2°56.096 124.1 -999 46 8.7
2007-10-17 06:40:44 51°13.597 2°56.096 124.1 0.1 203 8.7
2007-10-17 06:40:49 51°13.598 2°56.096 124.1 -999 317 -999
2007-10-17 06:40:54 51°13.598 2°56.097 124.1 -999 336 8.8
2007-10-17 06:40:59 51°13.6 2°56.097 124.1 -999 11 8.7
2007-10-17 06:41:04 51°13.6 2°56.096 124.1 -999 350 8.7
2007-10-17 06:41:09 51°13.599 2°56.097 124.2 -999 344 -999
2007-10-17 06:41:14 51°13.599 2°56.097 124.2 -999 137 8.7
2007-10-17 06:41:19 51°13.6 2°56.096 124.2 -999 303 8.7
2007-10-17 06:41:24 51°13.601 2°56.096 124.2 -999 333 -999
2007-10-17 06:41:29 51°13.601 2°56.096 124.2 -999 287 8.7
2007-10-17 06:41:34 51°13.601 2°56.096 124.2 -999 227 8.7
2007-10-17 06:41:39 51°13.601 2°56.096 124.2 -999 12 8.7
2007-10-17 06:41:44 51°13.6 2°56.096 124.2 -999 119 8.7
2007-10-17 06:41:49 51°13.6 2°56.096 124.2 -999 223 8.7
2007-10-17 06:41:53 51°13.601 2°56.096 124.2 -999 168 8.7
2007-10-17 06:41:59 51°13.603 2°56.096 124.2 -999 337 8.7
2007-10-17 06:42:04 51°13.604 2°56.096 124.2 -999 43 8.7
2007-10-17 06:42:09 51°13.605 2°56.096 124.2 -999 225 8.7
2007-10-17 06:42:14 51°13.605 2°56.096 124.2 -999 253 8.7
2007-10-17 06:42:19 51°13.605 2°56.096 124.2 -999 314 8.7
2007-10-17 06:42:24 51°13.604 2°56.096 124.2 -999 238 8.7
2007-10-17 06:42:29 51°13.604 2°56.096 124.2 -999 338 8.7
2007-10-17 06:42:33 51°13.604 2°56.096 124.2 -999 327 8.7
2007-10-17 06:42:39 51°13.604 2°56.096 124.3 -999 213 8.7
2007-10-17 06:42:44 51°13.604 2°56.096 124.4 -999 239 8.7
2007-10-17 06:42:49 51°13.603 2°56.096 124.4 -999 265 8.7
2007-10-17 06:42:53 51°13.603 2°56.096 124.4 -999 354 8.8
2007-10-17 06:42:59 51°13.603 2°56.096 124.4 -999 358 8.7
2007-10-17 06:43:04 51°13.603 2°56.096 124.4 -999 250 8.7
2007-10-17 06:43:09 51°13.603 2°56.096 124.3 -999 259 8.7
2007-10-17 06:43:14 51°13.603 2°56.096 124.3 -999 18 8.7
2007-10-17 06:43:19 51°13.603 2°56.096 124.2 -999 22 8.8
2007-10-17 06:43:24 51°13.603 2°56.096 124.2 -999 317 8.8
2007-10-17 06:43:29 51°13.603 2°56.096 124.3 -999 268 8.7
2007-10-17 06:43:34 51°13.603 2°56.096 124.3 -999 25 8.8
2007-10-17 06:43:39 51°13.603 2°56.096 124.3 -999 319 8.7
2007-10-17 06:43:44 51°13.603 2°56.096 124.3 -999 284 8.7
2007-10-17 06:43:49 51°13.603 2°56.096 124.3 -999 290 8.9
2007-10-17 06:43:54 51°13.603 2°56.096 124.3 -999 326 8.7
2007-10-17 06:43:59 51°13.603 2°56.096 124.3 -999 155 8.7
2007-10-17 06:44:04 51°13.602 2°56.096 124.3 -999 295 8.7
2007-10-17 06:44:09 51°13.602 2°56.096 124.3 -999 214 8.7
2007-10-17 06:44:13 51°13.602 2°56.096 124.3 -999 250 8.7
2007-10-17 06:44:19 51°13.602 2°56.096 124.3 -999 338 9
2007-10-17 06:44:24 51°13.602 2°56.096 124.3 -999 228 8.9
2007-10-17 06:44:29 51°13.602 2°56.096 124.3 -999 215 8.9
2007-10-17 06:44:33 51°13.601 2°56.096 124.3 -999 254 9
2007-10-17 06:44:39 51°13.596 2°56.096 124.3 -999 172 8.7
2007-10-17 06:44:44 51°13.594 2°56.097 124.3 -999 169 -999
2007-10-17 06:44:49 51°13.594 2°56.097 124.4 -999 130 9
2007-10-17 06:44:54 51°13.595 2°56.097 124.4 -999 197 8.7
2007-10-17 06:44:59 51°13.595 2°56.097 124.4 -999 269 8.7
2007-10-17 06:45:04 51°13.596 2°56.096 124.5 -999 24 8.7
2007-10-17 06:45:09 51°13.597 2°56.096 124.5 -999 182 8.7
2007-10-17 06:45:14 51°13.597 2°56.096 124.5 -999 81 8.8
2007-10-17 06:45:19 51°13.597 2°56.096 124.5 -999 203 8.7
2007-10-17 06:45:24 51°13.597 2°56.096 124.5 -999 7 8.7
2007-10-17 06:45:29 51°13.596 2°56.096 124.5 0.1 232 8.7
2007-10-17 06:45:34 51°13.596 2°56.096 124.6 -999 353 8.7
2007-10-17 06:45:39 51°13.596 2°56.096 124.8 -999 262 8.7
2007-10-17 06:45:44 51°13.597 2°56.096 125.1 0.1 4 8.7
2007-10-17 06:45:49 51°13.597 2°56.096 125.2 -999 318 8.7
2007-10-17 06:45:53 51°13.597 2°56.096 125.2 0.1 6 8.8
2007-10-17 06:45:59 51°13.598 2°56.096 125.3 -999 215 8.8
2007-10-17 06:46:04 51°13.599 2°56.096 125.5 0.1 9 8.7
2007-10-17 06:46:09 51°13.599 2°56.096 125.6 0.1 242 8.7
2007-10-17 06:46:13 51°13.598 2°56.096 125.7 -999 227 8.9
2007-10-17 06:46:19 51°13.598 2°56.096 125.8 -999 261 8.7
2007-10-17 06:46:24 51°13.6 2°56.096 125.9 -999 348 8.7
2007-10-17 06:46:29 51°13.602 2°56.095 125.9 -999 350 8.8
2007-10-17 06:46:33 51°13.602 2°56.095 125.9 -999 16 8.8
2007-10-17 06:46:39 51°13.602 2°56.095 125.9 -999 237 8.7
2007-10-17 06:46:44 51°13.603 2°56.095 125.9 -999 67 8.7
2007-10-17 06:46:49 51°13.602 2°56.095 125.9 -999 147 8.7
2007-10-17 06:46:53 51°13.602 2°56.095 125.9 -999 93 8.6
2007-10-17 06:46:59 51°13.601 2°56.095 125.9 -999 148 8.7
2007-10-17 06:47:04 51°13.601 2°56.095 125.9 -999 104 8.7
2007-10-17 06:47:09 51°13.6 2°56.095 125.9 0.1 153 8.6
2007-10-17 06:47:13 51°13.6 2°56.095 125.9 0.1 162 8.7
2007-10-17 06:47:19 51°13.6 2°56.095 126 0.1 156 8.9
2007-10-17 06:47:24 51°13.6 2°56.095 126 0.1 106 8.6
2007-10-17 06:47:29 51°13.599 2°56.095 126.1 0.1 113 8.8
2007-10-17 06:47:33 51°13.599 2°56.095 126.1 -999 178 8.6
2007-10-17 06:47:39 51°13.599 2°56.096 126.1 0.1 73 8.6
2007-10-17 06:47:44 51°13.599 2°56.096 126.1 -999 175 8.7
2007-10-17 06:47:49 51°13.599 2°56.096 126 -999 77 8.6
2007-10-17 06:47:54 51°13.599 2°56.096 126 -999 255 8.6
2007-10-17 06:47:59 51°13.599 2°56.096 125.9 -999 42 8.7
2007-10-17 06:48:04 51°13.599 2°56.096 125.6 -999 49 8.6
2007-10-17 06:48:09 51°13.599 2°56.095 125.5 0.1 21 8.6
2007-10-17 06:48:13 51°13.598 2°56.095 125.3 -999 193 8.6
2007-10-17 06:48:19 51°13.598 2°56.095 125.2 -999 49 8.6
2007-10-17 06:48:24 51°13.598 2°56.095 125.2 -999 257 8.6
2007-10-17 06:48:29 51°13.598 2°56.095 125.2 0.1 271 8.7
2007-10-17 06:48:33 51°13.597 2°56.095 125.3 -999 289 8.6
2007-10-17 06:48:39 51°13.598 2°56.095 125.4 -999 259 8.7
2007-10-17 06:48:44 51°13.599 2°56.096 125.5 -999 288 8.6
2007-10-17 06:48:49 51°13.599 2°56.095 125.6 0.1 230 8.6
2007-10-17 06:48:53 51°13.599 2°56.095 125.7 -999 6 8.6
2007-10-17 06:48:59 51°13.599 2°56.095 125.7 -999 319 8.6
2007-10-17 06:49:04 51°13.599 2°56.095 125.7 -999 313 9
2007-10-17 06:49:09 51°13.598 2°56.095 125.7 -999 286 8.9
2007-10-17 06:49:13 51°13.598 2°56.095 125.7 0.1 318 8.7
2007-10-17 06:49:19 51°13.598 2°56.094 125.7 0.1 282 8.7
2007-10-17 06:49:24 51°13.596 2°56.094 125.7 0.1 289 8.6
2007-10-17 06:49:29 51°13.595 2°56.094 125.7 0.1 311 8.7
2007-10-17 06:49:33 51°13.596 2°56.094 125.7 0.1 309 8.7
2007-10-17 06:49:39 51°13.597 2°56.094 125.8 0.1 293 8.8
2007-10-17 06:49:44 51°13.597 2°56.094 125.9 0.1 328 8.7
2007-10-17 06:49:49 51°13.598 2°56.094 126 0.1 305 8.7
2007-10-17 06:49:54 51°13.598 2°56.094 126.1 0.1 302 8.7
2007-10-17 06:49:59 51°13.598 2°56.093 126.2 0.1 291 8.8
2007-10-17 06:50:04 51°13.598 2°56.093 126.4 0.1 262 8.7
2007-10-17 06:50:09 51°13.598 2°56.093 126.7 0.1 225 8.7
2007-10-17 06:50:14 51°13.598 2°56.093 127.1 0.1 237 8.7
2007-10-17 06:50:19 51°13.598 2°56.093 127.6 0.1 244 8.7
2007-10-17 06:50:24 51°13.598 2°56.093 128 0.1 250 8.7
2007-10-17 06:50:29 51°13.598 2°56.093 128.4 -999 243 8.7
2007-10-17 06:50:34 51°13.598 2°56.093 128.8 -999 309 8.7
2007-10-17 06:50:39 51°13.598 2°56.093 129.1 0.1 255 8.7
2007-10-17 06:50:44 51°13.598 2°56.093 129.3 -999 231 8.6
2007-10-17 06:50:49 51°13.598 2°56.093 129.7 -999 298 8.8
2007-10-17 06:50:54 51°13.598 2°56.093 129.8 0.1 242 8.7
2007-10-17 06:50:59 51°13.598 2°56.093 129.9 -999 282 8.7
2007-10-17 06:51:04 51°13.598 2°56.093 130.2 -999 259 8.7
2007-10-17 06:51:09 51°13.597 2°56.093 130.5 -999 275 8.7
2007-10-17 06:51:13 51°13.597 2°56.093 130.7 0.1 230 8.7
2007-10-17 06:51:19 51°13.597 2°56.093 131 0.1 236 8.7
2007-10-17 06:51:24 51°13.597 2°56.093 131.3 -999 280 8.8
2007-10-17 06:51:29 51°13.597 2°56.093 131.6 -999 248 9
2007-10-17 06:51:34 51°13.597 2°56.093 131.8 -999 239 8.7
2007-10-17 06:51:39 51°13.597 2°56.093 132 -999 161 8.7
2007-10-17 06:51:44 51°13.597 2°56.093 132.2 -999 269 8.7
2007-10-17 06:51:49 51°13.597 2°56.092 132.4 -999 237 8.7
2007-10-17 06:51:53 51°13.597 2°56.092 132.7 0.1 220 8.7
2007-10-17 06:51:59 51°13.597 2°56.093 132.9 -999 245 8.7
2007-10-17 06:52:04 51°13.597 2°56.092 133.3 -999 266 8.7
2007-10-17 06:52:09 51°13.597 2°56.092 133.6 0.1 235 8.8
2007-10-17 06:52:13 51°13.597 2°56.092 134.1 0.1 254 8.7
2007-10-17 06:52:19 51°13.597 2°56.092 134.4 0.1 251 8.7
2007-10-17 06:52:24 51°13.597 2°56.092 135 0.1 246 8.7
2007-10-17 06:52:29 51°13.597 2°56.092 135.4 0.1 236 9
2007-10-17 06:52:33 51°13.597 2°56.092 136 0.1 223 8.8
2007-10-17 06:52:39 51°13.596 2°56.091 136.5 0.1 222 8.9
2007-10-17 06:52:44 51°13.596 2°56.091 137.1 0.1 238 4.7
2007-10-17 06:52:49 51°13.596 2°56.091 137.7 0.1 233 8.8
2007-10-17 06:52:54 51°13.596 2°56.091 138.1 0.1 250 5
2007-10-17 06:52:59 51°13.596 2°56.091 138.9 0.1 255 8.8
2007-10-17 06:53:04 51°13.596 2°56.091 139.4 0.1 237 -999
2007-10-17 06:53:09 51°13.596 2°56.09 140.1 0.1 214 9
2007-10-17 06:53:14 51°13.596 2°56.09 140.8 0.1 194 4.7
2007-10-17 06:53:20 51°13.595 2°56.09 141.2 0.2 172 9.2
2007-10-17 06:53:25 51°13.595 2°56.091 141.4 0.4 149 9.3
2007-10-17 06:53:29 51°13.594 2°56.091 141.5 0.7 146 9.1
2007-10-17 06:53:34 51°13.593 2°56.093 140.9 0.9 141 9.1
2007-10-17 06:53:39 51°13.592 2°56.094 140.4 1.2 140 9.2
2007-10-17 06:53:44 51°13.591 2°56.096 140 1.4 138 9.5
2007-10-17 06:53:49 51°13.589 2°56.099 139.8 1.7 138 9.9
2007-10-17 06:53:54 51°13.587 2°56.102 139.6 1.9 138 10.1
2007-10-17 06:53:59 51°13.585 2°56.105 139.5 2.2 137 10.3
2007-10-17 06:54:04 51°13.582 2°56.109 139.6 2.4 138 10.4
2007-10-17 06:54:09 51°13.579 2°56.113 140.1 2.6 138 10.4
2007-10-17 06:54:14 51°13.576 2°56.117 140.8 2.8 139 10.6
2007-10-17 06:54:19 51°13.572 2°56.121 141.5 3 140 10.8
2007-10-17 06:54:24 51°13.569 2°56.125 142 3.2 140 10.9
2007-10-17 06:54:29 51°13.565 2°56.13 142.3 3.3 141 10.9
2007-10-17 06:54:33 51°13.562 2°56.134 142.6 3.4 141 11.4
2007-10-17 06:54:39 51°13.557 2°56.14 142.9 3.5 141 11.7
2007-10-17 06:54:44 51°13.554 2°56.145 143.1 3.6 141 11.9
2007-10-17 06:54:49 51°13.55 2°56.15 143.1 3.6 141 11.9
2007-10-17 06:54:54 51°13.546 2°56.155 143.1 3.5 140 11.8
2007-10-17 06:54:59 51°13.542 2°56.16 141.7 3.4 138 11.8
2007-10-17 06:55:04 51°13.539 2°56.166 138.5 3.4 133 11.8
2007-10-17 06:55:09 51°13.536 2°56.171 134 3.3 128 11.8
2007-10-17 06:55:13 51°13.535 2°56.176 129.2 3.1 123 11.8
2007-10-17 06:55:19 51°13.532 2°56.183 124.1 3 121 11.9
2007-10-17 06:55:24 51°13.53 2°56.189 119.1 3 114 11.8
2007-10-17 06:55:29 51°13.529 2°56.195 114.6 2.9 109 11.8
2007-10-17 06:55:33 51°13.528 2°56.2 109.7 3 104 11.9
2007-10-17 06:55:39 51°13.527 2°56.208 104.3 3 100 11.8
2007-10-17 06:55:44 51°13.527 2°56.214 99.8 3 93 11.8
2007-10-17 06:55:49 51°13.526 2°56.22 92.9 2.9 87 11.7
2007-10-17 06:55:54 51°13.527 2°56.226 87.1 2.7 81 11.5
2007-10-17 06:55:59 51°13.528 2°56.232 83.3 2.5 80 11.4
2007-10-17 06:56:04 51°13.529 2°56.236 80.5 2.1 76 11.2
2007-10-17 06:56:09 51°13.531 2°56.24 77.8 1.6 73 11.2
2007-10-17 06:56:13 51°13.532 2°56.242 74 1 67 11
2007-10-17 06:56:19 51°13.532 2°56.243 70.9 0.5 74 10.8
2007-10-17 06:56:24 51°13.531 2°56.243 67.7 0.1 233 10.9
2007-10-17 06:56:29 51°13.53 2°56.241 65.3 0.6 243 11
2007-10-17 06:56:34 51°13.53 2°56.239 63.8 1 246 11.1
2007-10-17 06:56:39 51°13.529 2°56.236 62.5 1.3 242 11.4
2007-10-17 06:56:44 51°13.528 2°56.234 61.6 1.2 240 -999
2007-10-17 06:56:50 51°13.527 2°56.231 61.4 1.1 247 -999
2007-10-17 06:56:56 51°13.526 2°56.229 61.4 0.8 245 -999
2007-10-17 06:57:01 51°13.526 2°56.229 60.7 0.2 301 -999
2007-10-17 06:57:07 51°13.527 2°56.229 58.5 0.6 41 -999
2007-10-17 06:57:13 51°13.529 2°56.231 54.1 1.1 36 -999
2007-10-17 06:57:18 51°13.53 2°56.233 48.6 1.4 37 -999
2007-10-17 06:57:23 51°13.532 2°56.235 41.7 1.5 29 -999
2007-10-17 06:57:28 51°13.534 2°56.236 35.3 1.6 27 -999
2007-10-17 06:57:32 51°13.536 2°56.237 31.4 1.6 21 -999
2007-10-17 06:57:37 51°13.538 2°56.238 26.9 1.6 20 -999
2007-10-17 06:57:43 51°13.54 2°56.24 23.6 1.5 16 -999
2007-10-17 06:57:48 51°13.542 2°56.24 21.2 1.3 14 10.4
2007-10-17 06:57:52 51°13.543 2°56.241 19.5 1 10 9.8
2007-10-17 06:57:57 51°13.544 2°56.241 18.2 0.7 5 9.7
2007-10-17 06:58:02 51°13.544 2°56.241 15.8 0.3 9 9.9
2007-10-17 06:58:07 51°13.544 2°56.24 13.7 0.2 210 9.8
2007-10-17 06:58:12 51°13.543 2°56.24 11.8 0.7 188 9.8
2007-10-17 06:58:17 51°13.541 2°56.239 10.2 1.2 191 9.8
2007-10-17 06:58:21 51°13.539 2°56.239 8.6 1.6 185 9.9
2007-10-17 06:58:27 51°13.536 2°56.238 7.1 2 187 -999
2007-10-17 06:58:32 51°13.533 2°56.238 5.2 2.4 184 -999
2007-10-17 06:58:37 51°13.529 2°56.238 3.6 2.5 183 -999
2007-10-17 06:58:42 51°13.526 2°56.238 1.9 2.4 181 -999
2007-10-17 06:58:47 51°13.522 2°56.238 1.1 2.2 182 -999
2007-10-17 06:58:53 51°13.519 2°56.237 0.8 2 183 -999
2007-10-17 06:58:57 51°13.518 2°56.237 0.8 1.4 183 -999
2007-10-17 06:59:03 51°13.517 2°56.237 359.7 0.5 200 -999
2007-10-17 06:59:07 51°13.517 2°56.237 356.8 0.5 319 -999
2007-10-17 06:59:13 51°13.519 2°56.235 351.6 1.3 329 -999
2007-10-17 06:59:18 51°13.521 2°56.232 344.7 2 329 -999
2007-10-17 06:59:23 51°13.524 2°56.229 338.1 2.7 325 -999
2007-10-17 06:59:28 51°13.527 2°56.224 329.4 3.1 318 -999
2007-10-17 06:59:33 51°13.53 2°56.219 319.5 3.3 312 -999
2007-10-17 06:59:37 51°13.533 2°56.214 312.8 3.6 306 11.5
2007-10-17 06:59:42 51°13.536 2°56.206 308.3 3.9 302 10.9
2007-10-17 06:59:47 51°13.539 2°56.198 306 4.2 301 10.8
2007-10-17 06:59:52 51°13.542 2°56.19 304.1 4.4 299 10.9
2007-10-17 06:59:57 51°13.545 2°56.181 302.2 4.5 299 10.9
2007-10-17 07:00:02 51°13.548 2°56.172 301 4.8 298 10.7
2007-10-17 07:00:07 51°13.551 2°56.162 301 5.1 299 10.7
2007-10-17 07:00:12 51°13.555 2°56.152 301.1 5.3 299 10.5
2007-10-17 07:00:16 51°13.557 2°56.144 301.2 5.5 299 10.6
2007-10-17 07:00:21 51°13.562 2°56.133 301.7 5.6 301 10.7
2007-10-17 07:00:26 51°13.566 2°56.122 302.6 5.8 301 10.8
2007-10-17 07:00:31 51°13.57 2°56.111 303.1 5.8 302 11
2007-10-17 07:00:36 51°13.574 2°56.1 303.3 5.9 301 11
2007-10-17 07:00:40 51°13.578 2°56.091 303.3 6 301 11.2
2007-10-17 07:00:45 51°13.582 2°56.079 303.3 6.1 301 11.3
2007-10-17 07:00:50 51°13.586 2°56.067 303.3 6.1 302 11.2
2007-10-17 07:00:55 51°13.591 2°56.056 303.6 6.2 302 11.3
2007-10-17 07:01:00 51°13.595 2°56.044 304.1 6.3 302 11.5
2007-10-17 07:01:05 51°13.6 2°56.032 304.2 6.3 302 11.4
2007-10-17 07:01:09 51°13.603 2°56.023 303.7 6.3 302 11.6
2007-10-17 07:01:14 51°13.608 2°56.011 303.7 6.4 301 11.3
2007-10-17 07:01:19 51°13.613 2°55.999 303.8 6.4 302 11.3
2007-10-17 07:01:24 51°13.617 2°55.987 304 6.4 302 11.2
2007-10-17 07:01:29 51°13.622 2°55.975 303.9 6.4 302 11.2
2007-10-17 07:01:34 51°13.626 2°55.963 303.5 6.3 301 11
2007-10-17 07:01:39 51°13.631 2°55.951 303.3 6.3 302 11
2007-10-17 07:01:44 51°13.635 2°55.939 303.3 6.2 302 10.9
2007-10-17 07:01:49 51°13.64 2°55.928 303.8 6.2 302 10.8
2007-10-17 07:01:54 51°13.644 2°55.916 304.4 6.2 302 10.7
2007-10-17 07:01:59 51°13.649 2°55.905 304.6 6.1 302 10.7
2007-10-17 07:02:04 51°13.653 2°55.893 304.3 6.1 302 10.6
2007-10-17 07:02:09 51°13.658 2°55.882 304.3 6.1 302 10.6
2007-10-17 07:02:13 51°13.661 2°55.873 304.5 6.1 302 10.5
2007-10-17 07:02:19 51°13.667 2°55.859 304.8 6 302 10.6
2007-10-17 07:02:24 51°13.671 2°55.848 305 6 303 10.5
2007-10-17 07:02:29 51°13.676 2°55.837 305.6 6 303 10.4
2007-10-17 07:02:34 51°13.681 2°55.826 306.6 6 305 10.3
2007-10-17 07:02:39 51°13.686 2°55.815 308 6 306 10.4
2007-10-17 07:02:44 51°13.691 2°55.804 309.1 6.1 307 10.8
2007-10-17 07:02:49 51°13.696 2°55.794 310.8 6 308 11.5
2007-10-17 07:02:53 51°13.7 2°55.786 312 6 309 12.6
2007-10-17 07:02:59 51°13.706 2°55.773 312.9 6.1 310 13.2
2007-10-17 07:03:04 51°13.712 2°55.763 313.7 6.1 310 13.2
2007-10-17 07:03:09 51°13.718 2°55.753 314.4 6.2 311 13.7
2007-10-17 07:03:13 51°13.722 2°55.745 315 6.3 311 12.7
2007-10-17 07:03:19 51°13.729 2°55.732 315.7 6.3 313 -999
2007-10-17 07:03:24 51°13.736 2°55.722 317.1 6.3 315 11.5
2007-10-17 07:03:29 51°13.742 2°55.712 319.3 6.4 317 11.1
2007-10-17 07:03:33 51°13.747 2°55.705 321.7 6.4 320 11.1
2007-10-17 07:03:39 51°13.756 2°55.695 323.9 6.4 323 11.1
2007-10-17 07:03:44 51°13.763 2°55.687 327 6.3 325 11.1
2007-10-17 07:03:49 51°13.77 2°55.679 329.5 6.4 326 11
2007-10-17 07:03:54 51°13.778 2°55.671 330.2 6.4 327 11
2007-10-17 07:03:59 51°13.785 2°55.664 331.3 6.4 329 11
2007-10-17 07:04:04 51°13.793 2°55.657 332.4 6.5 331 11.2
2007-10-17 07:04:09 51°13.801 2°55.652 333.7 6.4 332 11.3
2007-10-17 07:04:14 51°13.809 2°55.645 335.3 6.4 334 11.4
2007-10-17 07:04:19 51°13.817 2°55.64 336.9 6.4 335 -999
2007-10-17 07:04:24 51°13.825 2°55.633 338.3 6.3 335 11.2
2007-10-17 07:04:29 51°13.833 2°55.628 338.7 6.3 335 11.2
2007-10-17 07:04:33 51°13.839 2°55.622 338.5 6.3 335 11.1
2007-10-17 07:04:39 51°13.849 2°55.615 338.5 6.2 335 10.9
2007-10-17 07:04:44 51°13.857 2°55.609 339.1 6.2 336 10.9
2007-10-17 07:04:49 51°13.864 2°55.602 339.1 6.2 335 10.9
2007-10-17 07:04:54 51°13.873 2°55.597 339.1 6.3 336 10.9
2007-10-17 07:04:59 51°13.881 2°55.591 339.1 6.5 336 11
2007-10-17 07:05:04 51°13.889 2°55.585 338.9 6.6 335 11.2
2007-10-17 07:05:09 51°13.898 2°55.578 338.6 6.7 335 11
2007-10-17 07:05:13 51°13.905 2°55.573 338.5 6.8 336 11.1
2007-10-17 07:05:19 51°13.916 2°55.566 339 7 337 11
2007-10-17 07:05:24 51°13.925 2°55.56 339.5 7.2 337 11
2007-10-17 07:05:29 51°13.935 2°55.553 339.4 7.3 337 11.1
2007-10-17 07:05:34 51°13.944 2°55.547 339.2 7.4 337 11
2007-10-17 07:05:39 51°13.954 2°55.54 339.2 7.5 337 10.8
2007-10-17 07:05:44 51°13.964 2°55.534 339.5 7.7 337 10.8
2007-10-17 07:05:49 51°13.974 2°55.527 339.7 7.9 337 10.8
2007-10-17 07:05:54 51°13.984 2°55.521 339.9 8.1 337 10.8
2007-10-17 07:05:59 51°13.994 2°55.514 339.9 8.3 337 10.8
2007-10-17 07:06:04 51°14.005 2°55.507 339.9 8.5 337 10.8
2007-10-17 07:06:09 51°14.016 2°55.5 339.9 8.7 337 10.6
2007-10-17 07:06:14 51°14.027 2°55.492 340.2 8.9 337 10.5
2007-10-17 07:06:19 51°14.039 2°55.484 340.4 9 337 10.5
2007-10-17 07:06:24 51°14.05 2°55.476 339.9 9.1 335 -999
2007-10-17 07:06:29 51°14.062 2°55.467 339.1 9.2 335 10.9
2007-10-17 07:06:33 51°14.071 2°55.461 338.9 9.3 336 10.9
2007-10-17 07:06:39 51°14.085 2°55.45 338.9 9.4 335 10.6
2007-10-17 07:06:44 51°14.097 2°55.441 338.4 9.4 335 11
2007-10-17 07:06:49 51°14.109 2°55.432 337.4 9.5 333 11
2007-10-17 07:06:54 51°14.121 2°55.422 336.2 9.6 333 11.1
2007-10-17 07:06:59 51°14.133 2°55.412 336.1 9.7 333 11.1
2007-10-17 07:07:04 51°14.145 2°55.402 336.3 9.8 332 11.1
2007-10-17 07:07:09 51°14.156 2°55.391 335.3 9.8 331 11.1
2007-10-17 07:07:15 51°14.171 2°55.378 333.3 9.9 329 -999
2007-10-17 07:07:20 51°14.182 2°55.366 332 9.9 328 -999
2007-10-17 07:07:26 51°14.196 2°55.353 330.8 10 326 -999
2007-10-17 07:07:32 51°14.21 2°55.338 329.1 10.1 324 -999
2007-10-17 07:07:37 51°14.221 2°55.323 327.1 10.2 322 -999
2007-10-17 07:07:42 51°14.232 2°55.308 324.6 10.3 320 -999
2007-10-17 07:07:48 51°14.245 2°55.29 322.9 10.5 319 11.3
2007-10-17 07:07:53 51°14.256 2°55.274 321.6 10.6 317 -999
2007-10-17 07:07:57 51°14.265 2°55.261 320.9 10.8 315 11
2007-10-17 07:08:02 51°14.276 2°55.244 319.4 11 314 11.1
2007-10-17 07:08:07 51°14.286 2°55.226 318.1 11.1 312 11.1
2007-10-17 07:08:12 51°14.296 2°55.207 315.7 11.2 309 10.9
2007-10-17 07:08:17 51°14.306 2°55.188 313.2 11.3 309 10.9
2007-10-17 07:08:21 51°14.314 2°55.171 311.9 11.4 309 10.9
2007-10-17 07:08:26 51°14.324 2°55.151 311.5 11.7 307 10.9
2007-10-17 07:08:31 51°14.333 2°55.13 310.5 11.9 306 10.9
2007-10-17 07:08:36 51°14.343 2°55.109 309.7 12 306 10.9
2007-10-17 07:08:41 51°14.353 2°55.087 309.9 12.2 306 10.9
2007-10-17 07:08:46 51°14.364 2°55.064 309.4 12.4 303 10.8
2007-10-17 07:08:51 51°14.373 2°55.041 306.7 12.5 302 10.8
2007-10-17 07:08:56 51°14.383 2°55.018 304.9 12.6 303 10.6
2007-10-17 07:09:00 51°14.392 2°55 306 12.7 306 10.7
2007-10-17 07:09:05 51°14.402 2°54.977 308.2 12.7 306 10.8
2007-10-17 07:09:10 51°14.412 2°54.955 310.2 12.7 310 11
2007-10-17 07:09:15 51°14.424 2°54.934 313.3 12.8 313 11
2007-10-17 07:09:20 51°14.437 2°54.915 317.3 12.7 319 11.1
2007-10-17 07:09:25 51°14.451 2°54.898 322.3 12.6 324 11.1
2007-10-17 07:09:30 51°14.466 2°54.884 328.2 12.5 329 10.8
2007-10-17 07:09:34 51°14.479 2°54.874 334.4 12.5 333 10.6
2007-10-17 07:09:40 51°14.497 2°54.859 338.2 12.6 333 10.2
2007-10-17 07:09:45 51°14.513 2°54.847 339.5 12.7 333 10.1
2007-10-17 07:09:50 51°14.528 2°54.834 339.5 12.6 333 10.2
2007-10-17 07:09:55 51°14.544 2°54.822 339.4 12.6 334 10
2007-10-17 07:10:00 51°14.56 2°54.81 339.6 12.7 334 10
2007-10-17 07:10:05 51°14.576 2°54.798 339.7 12.7 336 9.9
2007-10-17 07:10:10 51°14.592 2°54.789 342.4 12.6 339 9.9
2007-10-17 07:10:14 51°14.605 2°54.781 344.4 12.6 339 9.7
2007-10-17 07:10:19 51°14.622 2°54.773 346.6 12.6 343 9.7
2007-10-17 07:10:24 51°14.638 2°54.764 348.5 12.6 343 9.7
2007-10-17 07:10:30 51°14.658 2°54.756 349.8 12.5 345 9.9
2007-10-17 07:10:34 51°14.672 2°54.751 351.1 12.5 346 9.7
2007-10-17 07:10:39 51°14.688 2°54.744 352.2 12.5 347 9.8
2007-10-17 07:10:45 51°14.709 2°54.737 352.9 12.4 346 9.7
2007-10-17 07:10:49 51°14.722 2°54.731 352.6 12.4 344 9.7
2007-10-17 07:10:54 51°14.738 2°54.72 348.7 12.4 338 9.7
2007-10-17 07:11:00 51°14.757 2°54.707 344.7 12.4 337 9.7
2007-10-17 07:11:03 51°14.765 2°54.698 340.3 12.4 330 9.8
2007-10-17 07:11:09 51°14.783 2°54.682 336.5 12.5 329 9.8
2007-10-17 07:11:14 51°14.798 2°54.666 333.8 12.6 326 9.8
2007-10-17 07:11:20 51°14.815 2°54.647 331.3 12.6 325 9.9
2007-10-17 07:11:25 51°14.829 2°54.63 329.6 12.6 323 9.8
2007-10-17 07:11:30 51°14.843 2°54.613 327.8 12.6 322 9.8
2007-10-17 07:11:34 51°14.854 2°54.599 326.7 12.6 321 9.7
2007-10-17 07:11:40 51°14.87 2°54.578 325.4 12.6 321 9.8
2007-10-17 07:11:45 51°14.884 2°54.56 324.9 12.7 321 9.7
2007-10-17 07:11:50 51°14.898 2°54.543 325.3 12.7 322 9.7
2007-10-17 07:11:54 51°14.909 2°54.529 326.3 12.6 323 9.5
2007-10-17 07:11:59 51°14.923 2°54.513 327 12.7 323 9.4
2007-10-17 07:12:05 51°14.94 2°54.493 327.5 12.7 324 9.2
2007-10-17 07:12:10 51°14.955 2°54.477 328.7 12.6 325 9.2
2007-10-17 07:12:14 51°14.966 2°54.465 329.9 12.6 326 9
2007-10-17 07:12:19 51°14.981 2°54.45 330.9 12.6 327 9
2007-10-17 07:12:25 51°14.999 2°54.433 332 12.6 328 8.8
2007-10-17 07:12:30 51°15.014 2°54.418 332.8 12.5 329 8.7
2007-10-17 07:12:34 51°15.026 2°54.407 333.4 12.5 329 8.8
2007-10-17 07:12:40 51°15.043 2°54.39 334 12.5 330 8.7
2007-10-17 07:12:44 51°15.055 2°54.379 334.2 12.5 329 8.7
2007-10-17 07:12:50 51°15.073 2°54.362 334.2 12.6 329 8.7
2007-10-17 07:12:54 51°15.085 2°54.35 333.7 12.6 329 8.7
2007-10-17 07:13:00 51°15.103 2°54.332 333.1 12.6 329 8.8
2007-10-17 07:13:04 51°15.115 2°54.32 332.2 12.7 327 8.9
2007-10-17 07:13:10 51°15.132 2°54.301 330.6 12.7 326 9
2007-10-17 07:13:14 51°15.144 2°54.288 329.9 12.7 326 9.1
2007-10-17 07:13:19 51°15.158 2°54.272 329.1 12.7 326 9
2007-10-17 07:13:25 51°15.176 2°54.254 330.1 12.7 328 9.2
2007-10-17 07:13:29 51°15.188 2°54.242 331.2 12.8 328 9.3
2007-10-17 07:13:34 51°15.204 2°54.228 332.4 12.8 330 9.2
2007-10-17 07:13:39 51°15.219 2°54.214 333.8 12.7 331 9.3
2007-10-17 07:13:45 51°15.238 2°54.198 334.8 12.6 331 9.3
2007-10-17 07:13:50 51°15.253 2°54.186 336.2 12.7 334 9.4
2007-10-17 07:13:54 51°15.266 2°54.176 337.5 12.6 334 9.4
2007-10-17 07:14:00 51°15.285 2°54.163 340.4 12.5 338 9.4
2007-10-17 07:14:05 51°15.301 2°54.153 342.9 12.5 339 9.5
2007-10-17 07:14:09 51°15.315 2°54.147 344.5 12.5 341 9.5
2007-10-17 07:14:14 51°15.331 2°54.137 346 12.4 341 9.7
2007-10-17 07:14:19 51°15.348 2°54.13 347.6 12.4 344 9.8
2007-10-17 07:14:25 51°15.367 2°54.121 349.1 12.4 344 9.7
2007-10-17 07:14:30 51°15.384 2°54.114 350.2 12.4 345 9.8
2007-10-17 07:14:34 51°15.398 2°54.109 350.7 12.4 347 9.9
2007-10-17 07:14:39 51°15.414 2°54.103 352 12.4 347 9.9
2007-10-17 07:14:45 51°15.434 2°54.096 352 12.3 348 10.1
2007-10-17 07:14:49 51°15.448 2°54.092 352.9 12.4 348 10
2007-10-17 07:14:54 51°15.465 2°54.085 352.7 12.4 346 10.1
2007-10-17 07:15:00 51°15.484 2°54.078 352 12.4 347 10.2
2007-10-17 07:15:04 51°15.498 2°54.072 351.7 12.5 345 10.2
2007-10-17 07:15:10 51°15.518 2°54.064 351.3 12.4 346 10.2
2007-10-17 07:15:14 51°15.531 2°54.059 351.1 12.4 345 10.3
2007-10-17 07:15:19 51°15.548 2°54.052 350.6 12.4 345 10.4
2007-10-17 07:15:25 51°15.568 2°54.043 350.2 12.4 344 10.5
2007-10-17 07:15:30 51°15.584 2°54.036 349.5 12.4 344 10.4
2007-10-17 07:15:34 51°15.597 2°54.029 348.4 12.4 343 10.6
2007-10-17 07:15:39 51°15.614 2°54.021 348.3 12.4 342 10.6
2007-10-17 07:15:45 51°15.633 2°54.011 347.8 12.5 343 10.5
2007-10-17 07:15:50 51°15.65 2°54.003 348.1 12.4 344 10.6
2007-10-17 07:15:54 51°15.663 2°53.997 348.6 12.5 343 10.6
2007-10-17 07:15:59 51°15.68 2°53.989 349 12.5 344 10.8
2007-10-17 07:16:05 51°15.7 2°53.981 349.2 12.5 345 10.8
2007-10-17 07:16:09 51°15.714 2°53.975 350.4 12.5 346 10.9
2007-10-17 07:16:13 51°15.727 2°53.97 350.8 12.5 347 11
2007-10-17 07:16:20 51°15.75 2°53.961 351.3 12.5 346 10.9
2007-10-17 07:16:25 51°15.767 2°53.955 351.5 12.5 347 10.9
2007-10-17 07:16:29 51°15.781 2°53.95 351.7 12.5 346 11
2007-10-17 07:16:33 51°15.795 2°53.945 351.7 12.5 347 11
2007-10-17 07:16:37 51°15.808 2°53.94 351.4 12.5 345 11
2007-10-17 07:16:45 51°15.835 2°53.929 350.5 12.5 346 11
2007-10-17 07:16:49 51°15.848 2°53.923 350.4 12.5 345 10.9
2007-10-17 07:16:53 51°15.862 2°53.919 351.2 12.5 350 11.1
2007-10-17 07:16:59 51°15.882 2°53.914 354 12.5 351 11
2007-10-17 07:17:04 51°15.9 2°53.911 356 12.5 355 11.3
2007-10-17 07:17:09 51°15.917 2°53.911 0.7 12.5 359 11.2
2007-10-17 07:17:14 51°15.934 2°53.91 3.2 12.4 -999 11.2
2007-10-17 07:17:19 51°15.951 2°53.912 6 12.4 3 11.3
2007-10-17 07:17:25 51°15.972 2°53.914 7.3 12.4 4 11.3
2007-10-17 07:17:29 51°15.986 2°53.916 9 12.5 6 11.3
2007-10-17 07:17:34 51°16.003 2°53.92 10.9 12.5 8 11.4
2007-10-17 07:17:39 51°16.02 2°53.924 11.6 12.5 9 11.4
2007-10-17 07:17:45 51°16.04 2°53.933 13.7 12.3 15 11.4
2007-10-17 07:17:50 51°16.055 2°53.943 19.3 12.2 22 11.4
2007-10-17 07:17:53 51°16.064 2°53.951 27.4 12.1 27 11.5
2007-10-17 07:17:59 51°16.08 2°53.969 33.6 12 36 11.4
2007-10-17 07:18:05 51°16.095 2°53.99 39.1 12 41 11.5
2007-10-17 07:18:09 51°16.104 2°54.006 47.1 11.9 47 11.4
2007-10-17 07:18:13 51°16.113 2°54.022 51.4 12 48 11.4
2007-10-17 07:18:20 51°16.129 2°54.049 51.4 12 47 11.4
2007-10-17 07:18:25 51°16.14 2°54.068 51.4 11.9 46 11.4
2007-10-17 07:18:29 51°16.15 2°54.081 49.7 11.1 42 11.4
2007-10-17 07:18:33 51°16.158 2°54.094 46.8 10.6 42 11.4
2007-10-17 07:18:40 51°16.174 2°54.112 43.2 10 37 11.4
2007-10-17 07:18:45 51°16.184 2°54.125 42 9.4 37 11.5
2007-10-17 07:18:49 51°16.191 2°54.135 40.6 8.9 39 11.5
2007-10-17 07:18:54 51°16.201 2°54.146 41.2 8.4 39 11.5
2007-10-17 07:18:59 51°16.208 2°54.159 45.5 7.8 49 11.5
2007-10-17 07:19:04 51°16.213 2°54.173 52.4 7.2 55 11.4
2007-10-17 07:19:09 51°16.218 2°54.186 60.5 6.9 62 11.5
2007-10-17 07:19:13 51°16.22 2°54.197 67.8 6.4 69 11.5
2007-10-17 07:19:19 51°16.223 2°54.212 73.4 6 72 11.5
2007-10-17 07:19:24 51°16.225 2°54.224 76.9 5.5 73 11.5
2007-10-17 07:19:29 51°16.227 2°54.235 79 5.2 73 11.5
2007-10-17 07:19:34 51°16.229 2°54.245 79.3 4.9 73 11.5
2007-10-17 07:19:39 51°16.231 2°54.255 78.3 4.7 70 11.5
2007-10-17 07:19:45 51°16.234 2°54.266 75.6 4.5 67 11.5
2007-10-17 07:19:49 51°16.236 2°54.273 71.1 4.3 62 11.6
2007-10-17 07:19:53 51°16.238 2°54.279 66 4 58 11.6
2007-10-17 07:20:00 51°16.243 2°54.288 62.6 3.8 56 11.5
2007-10-17 07:20:04 51°16.245 2°54.294 58.7 3.6 54 11.4
2007-10-17 07:20:09 51°16.248 2°54.299 56.6 3.2 49 11.4
2007-10-17 07:20:13 51°16.25 2°54.303 55.3 2.8 49 11.5
2007-10-17 07:20:19 51°16.252 2°54.307 55.6 2.3 50 11.5
2007-10-17 07:20:25 51°16.255 2°54.311 55.8 1.9 48 11.4
2007-10-17 07:20:29 51°16.256 2°54.313 55.9 1.5 45 11.4
2007-10-17 07:20:33 51°16.257 2°54.314 56 1.1 43 11.5
2007-10-17 07:20:40 51°16.258 2°54.316 56.2 0.8 41 11.5
2007-10-17 07:20:45 51°16.259 2°54.317 56.9 0.7 35 11.5
2007-10-17 07:20:49 51°16.26 2°54.318 57.8 0.7 37 11.4
2007-10-17 07:20:53 51°16.26 2°54.318 59.2 0.8 34 11.4
2007-10-17 07:21:00 51°16.261 2°54.32 60.9 0.7 32 11.4
2007-10-17 07:21:05 51°16.262 2°54.321 62 0.7 36 11.4
2007-10-17 07:21:09 51°16.263 2°54.321 63.6 0.7 35 11.5
2007-10-17 07:21:14 51°16.263 2°54.322 65.3 0.7 35 11.5
2007-10-17 07:21:18 51°16.264 2°54.323 66.8 0.7 33 11.5
2007-10-17 07:21:25 51°16.265 2°54.324 68.2 0.7 32 11.5
2007-10-17 07:21:30 51°16.266 2°54.325 69.8 0.7 30 11.5
2007-10-17 07:21:34 51°16.267 2°54.325 71.4 0.7 30 11.5
2007-10-17 07:21:39 51°16.267 2°54.326 73.2 0.7 31 11.5
2007-10-17 07:21:45 51°16.268 2°54.327 75 0.6 32 11.5
2007-10-17 07:21:50 51°16.269 2°54.328 77 0.7 33 11.5
2007-10-17 07:21:53 51°16.269 2°54.328 79.3 0.7 33 11.5
2007-10-17 07:22:00 51°16.27 2°54.33 80.9 0.6 36 11.5
2007-10-17 07:22:04 51°16.271 2°54.33 82.7 0.6 36 11.4
2007-10-17 07:22:09 51°16.272 2°54.331 84.6 0.6 36 11.5
2007-10-17 07:22:14 51°16.272 2°54.332 86.3 0.6 34 11.4
2007-10-17 07:22:19 51°16.273 2°54.333 88 0.6 36 11.5
2007-10-17 07:22:25 51°16.274 2°54.333 89.4 0.6 36 11.4
2007-10-17 07:22:30 51°16.274 2°54.334 90.8 0.6 34 11.5
2007-10-17 07:22:34 51°16.275 2°54.334 92.1 0.5 36 11.5
2007-10-17 07:22:39 51°16.275 2°54.335 93.2 0.5 31 11.5
2007-10-17 07:22:45 51°16.276 2°54.336 94.2 0.5 30 11.5
2007-10-17 07:22:50 51°16.277 2°54.336 95 0.5 28 11.4
2007-10-17 07:22:54 51°16.277 2°54.336 95.9 0.4 32 11.5
2007-10-17 07:23:00 51°16.278 2°54.337 96.8 0.4 31 11.4
2007-10-17 07:23:05 51°16.278 2°54.338 97.7 0.5 33 11.4
2007-10-17 07:23:10 51°16.279 2°54.338 98.5 0.5 31 11.5
2007-10-17 07:23:14 51°16.279 2°54.338 99.2 0.4 33 11.5
2007-10-17 07:23:20 51°16.28 2°54.339 99.8 0.4 27 11.4
2007-10-17 07:23:25 51°16.28 2°54.339 100.7 0.5 26 11.4
2007-10-17 07:23:30 51°16.281 2°54.34 101.3 0.5 27 11.5
2007-10-17 07:23:34 51°16.281 2°54.34 102 0.4 33 11.6
2007-10-17 07:23:39 51°16.282 2°54.341 102.9 0.4 24 11.5
2007-10-17 07:23:45 51°16.282 2°54.341 103.6 0.4 26 11.4
2007-10-17 07:23:50 51°16.283 2°54.342 104.4 0.4 24 11.5
2007-10-17 07:23:54 51°16.283 2°54.342 105.2 0.4 21 11.4
2007-10-17 07:23:59 51°16.284 2°54.342 106.2 0.3 23 11.4
2007-10-17 07:24:05 51°16.284 2°54.342 107.1 0.3 22 11.4
2007-10-17 07:24:10 51°16.285 2°54.343 107.9 0.3 23 11.5
2007-10-17 07:24:14 51°16.285 2°54.343 108.8 0.3 21 11.4
2007-10-17 07:24:19 51°16.285 2°54.343 109.5 0.3 26 11.4
2007-10-17 07:24:25 51°16.286 2°54.344 110.2 0.4 29 11.4
2007-10-17 07:24:30 51°16.286 2°54.344 110.9 0.4 29 11.5
2007-10-17 07:24:34 51°16.287 2°54.344 111.6 0.4 20 11.4
2007-10-17 07:24:39 51°16.287 2°54.345 112.3 0.4 21 11.4
2007-10-17 07:24:45 51°16.288 2°54.345 112.9 0.3 22 11.4
2007-10-17 07:24:50 51°16.288 2°54.345 113.6 0.5 25 11.5
2007-10-17 07:24:54 51°16.289 2°54.346 114.3 0.4 23 11.4
2007-10-17 07:25:00 51°16.289 2°54.346 114.8 0.4 21 11.5
2007-10-17 07:25:05 51°16.29 2°54.347 115.6 0.3 28 11.5
2007-10-17 07:25:10 51°16.29 2°54.347 116.1 0.4 27 11.4
2007-10-17 07:25:14 51°16.29 2°54.347 116.8 0.4 20 11.4
2007-10-17 07:25:20 51°16.291 2°54.348 117.5 0.4 25 11.5
2007-10-17 07:25:25 51°16.291 2°54.348 118.3 0.3 27 11.5
2007-10-17 07:25:30 51°16.292 2°54.348 119 0.4 24 11.5
2007-10-17 07:25:34 51°16.292 2°54.348 119.6 0.3 20 11.6
2007-10-17 07:25:39 51°16.292 2°54.348 120.2 0.3 19 11.4
2007-10-17 07:25:45 51°16.293 2°54.349 120.7 0.3 14 11.4
2007-10-17 07:25:50 51°16.293 2°54.349 121.1 0.3 17 11.4
2007-10-17 07:25:54 51°16.293 2°54.349 121.5 0.3 11 11.4
2007-10-17 07:26:00 51°16.294 2°54.349 121.8 0.4 10 11.4
2007-10-17 07:26:05 51°16.294 2°54.349 122 0.3 5 11.4
2007-10-17 07:26:10 51°16.295 2°54.35 122.2 0.3 8 11.4
2007-10-17 07:26:14 51°16.295 2°54.35 122.3 0.4 12 11.4
2007-10-17 07:26:19 51°16.296 2°54.35 122.5 0.3 12 11.4
2007-10-17 07:26:25 51°16.296 2°54.35 122.6 0.4 15 11.4
2007-10-17 07:26:30 51°16.297 2°54.35 122.8 0.3 13 11.6
2007-10-17 07:26:34 51°16.297 2°54.351 122.9 0.4 16 11.5
2007-10-17 07:26:40 51°16.298 2°54.351 123 0.3 12 11.5
2007-10-17 07:26:45 51°16.299 2°54.351 123 0.4 13 11.5
2007-10-17 07:26:50 51°16.299 2°54.351 123.1 0.3 7 11.4
2007-10-17 07:26:54 51°16.3 2°54.352 123.1 0.4 12 11.4
2007-10-17 07:26:59 51°16.3 2°54.352 123.1 0.4 7 11.6
2007-10-17 07:27:05 51°16.3 2°54.352 123.3 0.3 3 11.4
2007-10-17 07:27:10 51°16.301 2°54.352 123.3 0.4 9 11.5
2007-10-17 07:27:14 51°16.301 2°54.352 123.2 0.4 7 11.4
2007-10-17 07:27:20 51°16.302 2°54.352 123.1 0.4 14 11.4
2007-10-17 07:27:25 51°16.302 2°54.352 123 0.4 6 11.4
2007-10-17 07:27:30 51°16.303 2°54.352 122.9 0.4 13 11.3
2007-10-17 07:27:34 51°16.303 2°54.353 123 0.4 18 11.4
2007-10-17 07:27:40 51°16.304 2°54.353 123.1 0.4 20 11.4
2007-10-17 07:27:45 51°16.304 2°54.353 123.1 0.3 18 11.4
2007-10-17 07:27:50 51°16.305 2°54.353 123.1 0.3 14 11.4
2007-10-17 07:27:54 51°16.305 2°54.353 123.3 0.4 14 11.4
2007-10-17 07:27:59 51°16.306 2°54.354 123.6 0.4 12 11.4
2007-10-17 07:28:05 51°16.306 2°54.354 123.5 0.3 12 11.4
2007-10-17 07:28:10 51°16.307 2°54.354 123.7 0.4 14 11.5
2007-10-17 07:28:14 51°16.307 2°54.354 123.7 0.4 19 11.4
2007-10-17 07:28:19 51°16.308 2°54.354 123.7 0.4 18 11.5
2007-10-17 07:28:25 51°16.308 2°54.355 123.8 0.4 14 11.5
2007-10-17 07:28:30 51°16.309 2°54.355 123.7 0.5 16 11.4
2007-10-17 07:28:34 51°16.309 2°54.355 123.6 0.4 13 11.3